Aérodrome :
LOGIN :

S'inscrire | Disclaimer

   EN    FR    IT 

 










Légende :    VFR   VFR Marginal   IFR   IFR Intensif   IFR Très Intensif
Visi : 
Plafond : 
>= 8 km
>= 3000ft
5 à 8 km
1000 à 3000 ft
1500m à 5 km
500 à 1000 ft
800 à 1500m
200 à 500 ft
< 800m
< 200 ft
Symboles :   Orages  Brouillard  Fortes neiges  Fortes précipitations  Vent > 20 kt
SIGMETs :   Divers  Orages  Givrage  Turbulence  Onde Orograph.  Cendres Volcan.






- Altitude de l'aérodrome : 1649 ft
- Code IATA : HHN


EDFH - Frankfurt-Hahn Rhineland-Palatinate

DERNIER METAR :
  • 171920Z 28011KT 0600 R21/0900D FG VV/// 01/01 Q1021

METARs EXPIRÉS :
  • 171850Z 28010KT 2500 BR BKN002 01/01 Q1021
  • 171820Z 28010KT 8000 -SNRA BKN004 01/01 Q1021
  • 171750Z 27011KT 9999 FEW007 SCT011 01/01 Q1020
  • 171720Z 29005KT 9999 BKN012 01/01 Q1020
  • 171650Z 28008KT 6000 BKN010 01/01 Q1020

TAF TAF EDFH
Valide du 17 à 18h jusqu'au 18 à 18h UTC


171700Z 1718/1818 27009KT 6000 SCT004 BKN012
TEMPO 1718/1809 0400 FG FZFG VV001
PROB30
TEMPO 1718/1721 -FZRA
PROB40
TEMPO 1812/1818 3500 -SNA BR BKN003



MET'MAP, la Météo Aéronautique d'un coup d'oeil ! - Copyright ORBIFLY Décembre 2007 - Disclaimer

ORBIFLY MET'MAP TEAM :

Programmation & Développement : Alexandra Zaïnal
Sur une idée originale de : Baudouin d'Aumeries
Assistance à la programmation : Marc-Olivier Méhu
Soutien technique & logistique : Manuel Goepfert

Contact : metmap@orbifly.com




SOURCES & CREDITS :

   NOAA